createdAt,value
2019-03-19T00:00:08.264Z,1.90
2019-03-19T00:01:05.382Z,1.80
2019-03-19T00:02:08.051Z,1.80
2019-03-19T00:03:07.568Z,1.90
2019-03-19T00:04:05.552Z,1.80
2019-03-19T00:05:04.669Z,1.80
2019-03-19T00:06:04.986Z,1.80
2019-03-19T00:07:05.320Z,1.80
2019-03-19T00:08:08.057Z,1.80
2019-03-19T00:09:05.132Z,1.70
2019-03-19T00:10:05.324Z,1.70
2019-03-19T00:11:05.579Z,1.70
2019-03-19T00:12:07.412Z,1.70
2019-03-19T00:13:05.361Z,1.70
2019-03-19T00:14:05.515Z,1.70
2019-03-19T00:15:05.618Z,1.60
2019-03-19T00:16:04.765Z,1.60
2019-03-19T00:17:04.972Z,1.60
2019-03-19T00:18:05.112Z,1.60
2019-03-19T00:19:05.388Z,1.50
2019-03-19T00:20:08.275Z,1.50
2019-03-19T00:21:05.313Z,1.50
2019-03-19T00:22:05.464Z,1.50
2019-03-19T00:23:05.623Z,1.50
2019-03-19T00:24:04.819Z,1.40
2019-03-19T00:25:07.495Z,1.50
2019-03-19T00:26:05.479Z,1.40
2019-03-19T00:27:05.655Z,1.50
2019-03-19T00:28:07.304Z,1.50
2019-03-19T00:29:05.342Z,1.40
2019-03-19T00:30:08.120Z,1.40
2019-03-19T00:31:07.679Z,1.40
2019-03-19T00:32:08.234Z,1.40
2019-03-19T00:33:07.743Z,1.50
2019-03-19T00:34:04.707Z,1.50
2019-03-19T00:35:07.327Z,1.40
2019-03-19T00:36:10.367Z,1.40
2019-03-19T00:37:05.349Z,1.40
2019-03-19T00:38:05.435Z,1.40
2019-03-19T00:39:08.092Z,1.40
2019-03-19T00:40:05.064Z,1.40
2019-03-19T00:41:05.209Z,1.40
2019-03-19T00:42:05.244Z,1.40
2019-03-19T00:43:05.478Z,1.40
2019-03-19T00:44:04.699Z,1.30
2019-03-19T00:45:07.293Z,1.30
2019-03-19T00:46:07.849Z,1.30
2019-03-19T00:47:04.984Z,1.30
2019-03-19T00:48:05.203Z,1.30
2019-03-19T00:49:06.772Z,1.20
2019-03-19T00:50:05.185Z,1.20
2019-03-19T00:51:05.354Z,1.20
2019-03-19T00:52:05.481Z,1.20
2019-03-19T00:53:08.134Z,1.20
2019-03-19T00:54:07.722Z,1.20
2019-03-19T00:55:09.820Z,1.20
2019-03-19T00:56:07.472Z,1.20
2019-03-19T00:57:05.618Z,1.20
2019-03-19T00:58:04.962Z,1.20
2019-03-19T00:59:05.334Z,1.20
2019-03-19T01:00:05.397Z,1.20
2019-03-19T01:01:10.036Z,1.20
2019-03-19T01:02:07.521Z,1.30
2019-03-19T01:03:05.804Z,1.20
2019-03-19T01:04:05.123Z,1.20
2019-03-19T01:05:05.321Z,1.30
2019-03-19T01:06:05.436Z,1.20
2019-03-19T01:07:08.139Z,1.20
2019-03-19T01:08:07.664Z,1.20
2019-03-19T01:09:05.731Z,1.20
2019-03-19T01:10:04.955Z,1.20
2019-03-19T01:11:07.477Z,1.20
2019-03-19T01:12:05.441Z,1.20
2019-03-19T01:13:05.559Z,1.20
2019-03-19T01:14:04.726Z,1.20
2019-03-19T01:15:07.441Z,1.10
2019-03-19T01:16:05.471Z,1.10
2019-03-19T01:17:08.253Z,1.10
2019-03-19T01:18:05.331Z,1.10
2019-03-19T01:19:08.089Z,1.20
2019-03-19T01:20:07.756Z,1.10
2019-03-19T01:21:07.290Z,1.10
2019-03-19T01:22:10.507Z,1.10
2019-03-19T01:23:08.078Z,1.10
2019-03-19T01:24:07.614Z,1.10
2019-03-19T01:25:10.651Z,1.10
2019-03-19T01:26:05.608Z,1.00
2019-03-19T01:27:07.283Z,1.00
2019-03-19T01:28:05.227Z,1.00
2019-03-19T01:29:07.848Z,1.00
2019-03-19T01:30:07.431Z,1.00
2019-03-19T01:31:07.938Z,1.00
2019-03-19T01:32:04.979Z,0.90
2019-03-19T01:33:07.634Z,1.00
2019-03-19T01:34:05.761Z,1.00
2019-03-19T01:35:07.425Z,1.00
2019-03-19T01:36:05.415Z,0.90
2019-03-19T01:37:05.564Z,0.90
2019-03-19T01:38:04.639Z,1.00
2019-03-19T01:39:04.770Z,0.90
2019-03-19T01:40:04.844Z,0.90
2019-03-19T01:41:05.062Z,0.90
2019-03-19T01:42:07.864Z,0.90
2019-03-19T01:43:04.996Z,0.90
2019-03-19T01:44:05.348Z,0.90
2019-03-19T01:45:05.497Z,0.80
2019-03-19T01:46:05.557Z,0.80
2019-03-19T01:47:04.733Z,0.80
2019-03-19T01:48:04.975Z,0.80
2019-03-19T01:49:05.154Z,0.80
2019-03-19T01:50:08.075Z,0.80
2019-03-19T01:51:07.585Z,0.80
2019-03-19T01:52:05.583Z,0.80
2019-03-19T01:53:04.731Z,0.80
2019-03-19T01:54:04.831Z,0.80
2019-03-19T01:55:04.940Z,0.80
2019-03-19T01:56:05.650Z,0.80
2019-03-19T01:57:10.063Z,0.80
2019-03-19T01:58:05.060Z,0.80
2019-03-19T01:59:07.796Z,0.80
2019-03-19T02:00:07.319Z,0.80
2019-03-19T02:01:07.870Z,0.80
2019-03-19T02:02:07.364Z,0.80
2019-03-19T02:03:10.488Z,0.80
2019-03-19T02:04:05.556Z,0.80
2019-03-19T02:05:04.904Z,0.80
2019-03-19T02:06:05.126Z,0.70
2019-03-19T02:07:05.400Z,0.70
2019-03-19T02:08:05.558Z,0.70
2019-03-19T02:09:04.708Z,0.70
2019-03-19T02:10:04.886Z,0.70
2019-03-19T02:11:05.143Z,0.70
2019-03-19T02:12:05.329Z,0.70
2019-03-19T02:13:08.016Z,0.60
2019-03-19T02:14:05.081Z,0.60
2019-03-19T02:15:05.319Z,0.60
2019-03-19T02:16:08.019Z,0.60
2019-03-19T02:17:12.407Z,0.60
2019-03-19T02:18:07.205Z,0.60
2019-03-19T02:19:05.179Z,0.60
2019-03-19T02:20:05.596Z,0.60
2019-03-19T02:21:07.309Z,0.60
2019-03-19T02:22:05.469Z,0.60
2019-03-19T02:23:05.690Z,0.60
2019-03-19T02:24:04.855Z,0.60
2019-03-19T02:25:07.614Z,0.50
2019-03-19T02:26:16.202Z,0.50
2019-03-19T02:27:05.173Z,0.50
2019-03-19T02:28:07.869Z,0.50
2019-03-19T02:29:10.943Z,0.50
2019-03-19T02:30:10.060Z,0.40
2019-03-19T02:31:05.265Z,0.40
2019-03-19T02:32:05.503Z,0.40
2019-03-19T02:33:04.868Z,0.40
2019-03-19T02:34:05.079Z,0.40
2019-03-19T02:35:05.299Z,0.40
2019-03-19T02:36:05.531Z,0.40
2019-03-19T02:37:04.664Z,0.30
2019-03-19T02:38:07.322Z,0.30
2019-03-19T02:39:05.363Z,0.30
2019-03-19T02:40:05.634Z,0.30
2019-03-19T02:41:07.533Z,0.30
2019-03-19T02:42:05.569Z,0.30
2019-03-19T02:43:05.615Z,0.30
2019-03-19T02:44:05.201Z,0.30
2019-03-19T02:45:05.341Z,0.30
2019-03-19T02:46:05.530Z,0.30
2019-03-19T02:47:04.706Z,0.30
2019-03-19T02:48:09.987Z,0.30
2019-03-19T02:49:04.970Z,0.30
2019-03-19T02:50:07.416Z,0.40
2019-03-19T02:51:05.448Z,0.30
2019-03-19T02:52:08.138Z,0.30
2019-03-19T02:53:10.185Z,0.30
2019-03-19T02:54:05.149Z,0.30
2019-03-19T02:55:05.175Z,0.30
2019-03-19T02:56:05.339Z,0.30
2019-03-19T02:57:05.462Z,0.30
2019-03-19T02:58:05.674Z,0.30
2019-03-19T02:59:07.315Z,0.20
2019-03-19T03:00:05.343Z,0.20
2019-03-19T03:01:05.480Z,0.10
2019-03-19T03:02:05.658Z,0.10
2019-03-19T03:03:04.933Z,0.10
2019-03-19T03:04:07.791Z,0.00
2019-03-19T03:05:04.855Z,0.00
2019-03-19T03:06:05.050Z,0.00
2019-03-19T03:07:05.233Z,0.00
2019-03-19T03:08:07.918Z,0.00
2019-03-19T03:09:07.449Z,0.00
2019-03-19T03:10:07.931Z,0.00
2019-03-19T03:11:05.051Z,0.00
2019-03-19T03:12:05.226Z,0.00
2019-03-19T03:13:05.391Z,0.10
2019-03-19T03:14:08.070Z,0.10
2019-03-19T03:15:07.579Z,0.10
2019-03-19T03:16:05.617Z,0.00
2019-03-19T03:17:04.944Z,0.10
2019-03-19T03:18:05.136Z,0.00
2019-03-19T03:19:05.347Z,0.00
2019-03-19T03:20:05.462Z,0.10
2019-03-19T03:21:05.549Z,0.10
2019-03-19T03:22:07.442Z,0.10
2019-03-19T03:23:07.978Z,0.10
2019-03-19T03:24:05.062Z,0.10
2019-03-19T03:25:07.843Z,0.00
2019-03-19T03:26:04.871Z,0.00
2019-03-19T03:27:05.040Z,0.00
2019-03-19T03:28:10.352Z,0.00
2019-03-19T03:29:05.307Z,0.00
2019-03-19T03:30:05.450Z,0.00
2019-03-19T03:31:08.303Z,-0.10
2019-03-19T03:32:05.411Z,0.00
2019-03-19T03:33:05.639Z,0.00
2019-03-19T03:34:07.400Z,-0.10
2019-03-19T03:35:08.005Z,0.00
2019-03-19T03:36:05.168Z,0.00
2019-03-19T03:37:07.853Z,0.00
2019-03-19T03:38:04.844Z,-0.10
2019-03-19T03:39:05.062Z,0.00
2019-03-19T03:40:05.212Z,0.00
2019-03-19T03:41:08.006Z,0.00
2019-03-19T03:42:12.716Z,0.00
2019-03-19T03:43:04.719Z,0.00
2019-03-19T03:44:05.007Z,0.10
2019-03-19T03:45:07.668Z,0.10
2019-03-19T03:46:08.265Z,0.10
2019-03-19T03:47:07.820Z,0.10
2019-03-19T03:48:04.937Z,0.10
2019-03-19T03:49:05.274Z,0.10
2019-03-19T03:50:05.470Z,0.20
2019-03-19T03:51:05.700Z,0.20
2019-03-19T03:52:07.477Z,0.20
2019-03-19T03:53:05.684Z,0.20
2019-03-19T03:54:07.506Z,0.20
2019-03-19T03:55:05.634Z,0.20
2019-03-19T03:56:07.405Z,0.20
2019-03-19T03:57:08.069Z,0.20
2019-03-19T03:58:04.974Z,0.20
2019-03-19T03:59:05.159Z,0.30
2019-03-19T04:00:07.797Z,0.30
2019-03-19T04:01:04.829Z,0.20
2019-03-19T04:02:05.018Z,0.20
2019-03-19T04:03:05.151Z,0.30
2019-03-19T04:04:05.378Z,0.20
2019-03-19T04:05:05.697Z,0.30
2019-03-19T04:06:04.825Z,0.30
2019-03-19T04:07:05.013Z,0.30
2019-03-19T04:08:05.258Z,0.30
2019-03-19T04:09:08.837Z,0.30
2019-03-19T04:10:05.536Z,0.20
2019-03-19T04:11:04.697Z,0.30
2019-03-19T04:12:04.816Z,0.20
2019-03-19T04:13:07.616Z,0.30
2019-03-19T04:14:05.683Z,0.20
2019-03-19T04:15:04.830Z,0.20
2019-03-19T04:16:05.083Z,0.30
2019-03-19T04:17:05.370Z,0.20
2019-03-19T04:18:05.595Z,0.20
2019-03-19T04:19:04.843Z,0.20
2019-03-19T04:20:04.996Z,0.20
2019-03-19T04:21:05.124Z,0.20
2019-03-19T04:22:05.411Z,0.20
2019-03-19T04:23:08.216Z,0.20
2019-03-19T04:24:05.229Z,0.20
2019-03-19T04:25:07.990Z,0.20
2019-03-19T04:26:07.527Z,0.20
2019-03-19T04:27:15.151Z,0.20
2019-03-19T04:28:08.033Z,0.20
2019-03-19T04:29:05.003Z,0.20
2019-03-19T04:30:07.701Z,0.20
2019-03-19T04:31:04.797Z,0.20
2019-03-19T04:32:04.864Z,0.20
2019-03-19T04:33:05.062Z,0.20
2019-03-19T04:34:05.267Z,0.20
2019-03-19T04:35:08.017Z,0.20
2019-03-19T04:36:04.994Z,0.20
2019-03-19T04:37:05.355Z,0.20
2019-03-19T04:38:08.054Z,0.20
2019-03-19T04:39:07.748Z,0.20
2019-03-19T04:40:07.377Z,0.20
2019-03-19T04:41:05.381Z,0.20
2019-03-19T04:42:08.141Z,0.20
2019-03-19T04:43:07.642Z,0.20
2019-03-19T04:44:05.523Z,0.20
2019-03-19T04:45:08.165Z,0.10
2019-03-19T04:46:05.140Z,0.10
2019-03-19T04:47:05.209Z,0.10
2019-03-19T04:48:05.410Z,0.20
2019-03-19T04:49:05.702Z,0.10
2019-03-19T04:50:04.849Z,0.10
2019-03-19T04:51:09.976Z,0.00
2019-03-19T04:52:07.466Z,0.10
2019-03-19T04:53:07.955Z,0.00
2019-03-19T04:54:04.964Z,0.00
2019-03-19T04:55:05.319Z,0.00
2019-03-19T04:56:05.454Z,0.00
2019-03-19T04:57:08.139Z,0.00
2019-03-19T04:58:05.123Z,0.00
2019-03-19T04:59:05.394Z,0.00
2019-03-19T05:00:05.561Z,0.00
2019-03-19T05:01:08.245Z,0.00
2019-03-19T05:02:07.769Z,0.00
2019-03-19T05:03:07.308Z,0.00
2019-03-19T05:04:05.282Z,0.00
2019-03-19T05:05:10.524Z,0.00
2019-03-19T05:06:08.184Z,0.00
2019-03-19T05:07:08.018Z,-0.10
2019-03-19T05:08:07.521Z,0.00
2019-03-19T05:09:05.431Z,0.00
2019-03-19T05:10:05.662Z,-0.10
2019-03-19T05:11:07.419Z,-0.10
2019-03-19T05:12:05.496Z,-0.10
2019-03-19T05:13:05.579Z,-0.10
2019-03-19T05:14:04.790Z,0.00
2019-03-19T05:15:04.981Z,-0.10
2019-03-19T05:16:07.903Z,0.00
2019-03-19T05:17:05.155Z,0.00
2019-03-19T05:18:07.936Z,0.00
2019-03-19T05:19:07.472Z,0.00
2019-03-19T05:20:05.461Z,0.00
2019-03-19T05:21:08.346Z,0.00
2019-03-19T05:22:05.440Z,0.00
2019-03-19T05:23:08.140Z,0.00
2019-03-19T05:24:05.276Z,0.00
2019-03-19T05:25:13.592Z,0.00
2019-03-19T05:26:05.799Z,0.00
2019-03-19T05:27:04.928Z,0.00
2019-03-19T05:28:05.074Z,0.00
2019-03-19T05:29:05.381Z,0.00
2019-03-19T05:30:05.684Z,0.00
2019-03-19T05:31:04.937Z,0.00
2019-03-19T05:32:07.671Z,0.00
2019-03-19T05:33:05.702Z,0.00
2019-03-19T05:34:04.966Z,0.00
2019-03-19T05:35:05.372Z,0.00
2019-03-19T05:36:08.155Z,0.00
2019-03-19T05:37:07.767Z,0.00
2019-03-19T05:38:04.842Z,0.10
2019-03-19T05:39:05.026Z,0.10
2019-03-19T05:40:05.169Z,0.00
2019-03-19T05:41:05.470Z,0.10
2019-03-19T05:42:09.851Z,0.10
2019-03-19T05:43:04.934Z,0.10
2019-03-19T05:44:05.547Z,0.10
2019-03-19T05:45:12.456Z,0.20
2019-03-19T05:46:05.553Z,0.10
2019-03-19T05:47:08.608Z,0.20
2019-03-19T05:48:10.858Z,0.20
2019-03-19T05:49:04.768Z,0.20
2019-03-19T05:50:05.064Z,0.20
2019-03-19T05:51:07.889Z,0.30
2019-03-19T05:52:04.937Z,0.30
2019-03-19T05:53:04.996Z,0.30
2019-03-19T05:54:05.276Z,0.40
2019-03-19T05:55:08.027Z,0.50
2019-03-19T05:56:05.049Z,0.50
2019-03-19T05:57:05.273Z,0.60
2019-03-19T05:58:05.525Z,0.70
2019-03-19T05:59:05.649Z,0.80
2019-03-19T06:00:10.014Z,1.00
2019-03-19T06:01:07.961Z,1.20
2019-03-19T06:02:07.753Z,1.30
2019-03-19T06:03:07.342Z,1.40
2019-03-19T06:04:07.945Z,1.50
2019-03-19T06:05:04.965Z,1.50
2019-03-19T06:06:07.754Z,1.60
2019-03-19T06:07:04.880Z,1.70
2019-03-19T06:08:07.598Z,1.70
2019-03-19T06:09:08.280Z,1.80
2019-03-19T06:10:05.359Z,1.80
2019-03-19T06:11:05.635Z,1.80
2019-03-19T06:12:07.505Z,1.70
2019-03-19T06:13:05.703Z,1.70
2019-03-19T06:14:07.450Z,1.80
2019-03-19T06:15:05.475Z,1.80
2019-03-19T06:16:09.789Z,2.00
2019-03-19T06:17:04.998Z,1.90
2019-03-19T06:18:05.111Z,2.00
2019-03-19T06:19:05.230Z,2.10
2019-03-19T06:20:05.422Z,2.20
2019-03-19T06:21:10.751Z,2.40
2019-03-19T06:22:09.930Z,2.50
2019-03-19T06:23:04.925Z,2.50
2019-03-19T06:24:05.320Z,2.60
2019-03-19T06:25:05.705Z,2.80
2019-03-19T06:26:05.004Z,2.90
2019-03-19T06:27:05.205Z,3.10
2019-03-19T06:28:05.529Z,3.20
2019-03-19T06:29:08.306Z,3.50
2019-03-19T06:30:05.262Z,3.50
2019-03-19T06:31:07.990Z,3.80
2019-03-19T06:32:05.062Z,3.90
2019-03-19T06:33:05.426Z,4.00
2019-03-19T06:34:05.638Z,4.10
2019-03-19T06:35:04.947Z,4.30
2019-03-19T06:36:05.268Z,4.50
2019-03-19T06:37:08.080Z,4.70
2019-03-19T06:38:07.615Z,4.90
2019-03-19T06:39:08.175Z,5.00
2019-03-19T06:40:05.162Z,5.00
2019-03-19T06:41:05.338Z,5.10
2019-03-19T06:42:08.148Z,5.40
2019-03-19T06:43:05.125Z,5.40
2019-03-19T06:44:08.300Z,5.60
2019-03-19T06:45:08.022Z,5.70
2019-03-19T06:46:05.129Z,5.70
2019-03-19T06:47:07.786Z,5.80
2019-03-19T06:48:04.900Z,5.80
2019-03-19T06:49:05.083Z,5.90
2019-03-19T06:50:07.844Z,5.90
2019-03-19T06:51:04.865Z,5.90
2019-03-19T06:52:07.653Z,5.90
2019-03-19T06:53:08.222Z,5.90
2019-03-19T06:54:18.218Z,5.90
2019-03-19T06:55:05.296Z,5.90
2019-03-19T06:56:08.096Z,6.00
2019-03-19T06:57:07.692Z,6.00
2019-03-19T06:58:11.126Z,6.00
2019-03-19T06:59:08.143Z,6.00
2019-03-19T07:00:05.174Z,6.00
2019-03-19T07:01:08.200Z,5.80
2019-03-19T07:02:05.268Z,5.80
2019-03-19T07:03:05.577Z,5.70
2019-03-19T07:04:04.949Z,5.60
2019-03-19T07:05:05.269Z,5.50
2019-03-19T07:06:10.551Z,5.30
2019-03-19T07:07:05.525Z,5.40
2019-03-19T07:08:05.684Z,5.30
2019-03-19T07:09:04.837Z,5.20
2019-03-19T07:10:04.933Z,5.10
2019-03-19T07:11:07.766Z,5.00
2019-03-19T07:12:07.360Z,4.90
2019-03-19T07:13:05.553Z,4.90
2019-03-19T07:14:12.660Z,4.80
2019-03-19T07:15:04.919Z,4.80
2019-03-19T07:16:07.789Z,4.70
2019-03-19T07:17:07.360Z,4.80
2019-03-19T07:18:05.432Z,4.70
2019-03-19T07:19:05.745Z,4.70
2019-03-19T07:20:04.961Z,4.70
2019-03-19T07:21:10.235Z,4.70
2019-03-19T07:22:05.214Z,4.70
2019-03-19T07:23:05.600Z,4.70
2019-03-19T07:24:04.825Z,4.80
2019-03-19T07:25:07.541Z,4.90
2019-03-19T07:26:08.224Z,4.90
2019-03-19T07:27:05.318Z,4.90
2019-03-19T07:28:08.362Z,5.00
2019-03-19T07:29:05.387Z,5.00
2019-03-19T07:30:05.512Z,5.00
2019-03-19T07:31:04.870Z,5.00
2019-03-19T07:32:05.044Z,5.00
2019-03-19T07:33:05.303Z,5.00
2019-03-19T07:34:05.640Z,5.00
2019-03-19T07:35:07.335Z,5.00
2019-03-19T07:36:06.351Z,5.00
2019-03-19T07:37:04.757Z,5.00
2019-03-19T07:38:05.029Z,5.00
2019-03-19T07:39:05.201Z,5.00
2019-03-19T07:40:05.422Z,5.00
2019-03-19T07:41:08.055Z,5.10
2019-03-19T07:42:04.995Z,5.00
2019-03-19T07:43:05.128Z,5.10
2019-03-19T07:44:07.474Z,5.20
2019-03-19T07:45:05.500Z,5.10
2019-03-19T07:46:05.587Z,5.20
2019-03-19T07:47:05.014Z,5.20
2019-03-19T07:48:05.240Z,5.20
2019-03-19T07:49:07.805Z,5.20
2019-03-19T07:50:04.865Z,5.20
2019-03-19T07:51:05.057Z,5.30
2019-03-19T07:52:05.245Z,5.20
2019-03-19T07:53:05.505Z,5.20
2019-03-19T07:54:05.624Z,5.20
2019-03-19T07:55:04.716Z,5.20
2019-03-19T07:56:04.922Z,5.10
2019-03-19T07:57:10.198Z,5.10
2019-03-19T07:58:05.121Z,5.10
2019-03-19T07:59:05.394Z,5.10
2019-03-19T08:00:05.580Z,5.10
2019-03-19T08:01:04.668Z,5.10
2019-03-19T08:02:07.395Z,5.00
2019-03-19T08:03:15.464Z,5.00
2019-03-19T08:04:05.608Z,5.00
2019-03-19T08:05:07.390Z,5.00
2019-03-19T08:06:05.680Z,5.00
2019-03-19T08:07:04.963Z,5.00
2019-03-19T08:08:05.228Z,5.00
2019-03-19T08:09:05.317Z,5.00
2019-03-19T08:10:08.016Z,5.00
2019-03-19T08:11:05.038Z,5.00
2019-03-19T08:12:07.791Z,5.00
2019-03-19T08:13:07.491Z,5.10
2019-03-19T08:14:08.079Z,5.10
2019-03-19T08:15:05.102Z,5.10
2019-03-19T08:16:05.366Z,5.20
2019-03-19T08:17:08.191Z,5.40
2019-03-19T08:18:05.394Z,5.40
2019-03-19T08:19:05.537Z,5.40
2019-03-19T08:20:09.910Z,5.60
2019-03-19T08:21:05.109Z,5.60
2019-03-19T08:22:05.435Z,5.70
2019-03-19T08:23:05.642Z,5.80
2019-03-19T08:24:04.773Z,5.90
2019-03-19T08:25:04.900Z,6.00
2019-03-19T08:26:10.271Z,6.10
2019-03-19T08:27:07.910Z,6.10
2019-03-19T08:28:04.910Z,6.10
2019-03-19T08:29:05.132Z,6.20
2019-03-19T08:30:06.497Z,6.20
2019-03-19T08:31:08.314Z,6.40
2019-03-19T08:32:05.415Z,6.40
2019-03-19T08:33:05.773Z,6.40
2019-03-19T08:34:05.125Z,6.40
2019-03-19T08:35:05.430Z,6.40
2019-03-19T08:36:09.464Z,6.40
2019-03-19T08:37:07.556Z,6.30
2019-03-19T08:38:05.925Z,6.30
2019-03-19T08:39:17.915Z,6.30
2019-03-19T08:40:04.987Z,6.30
2019-03-19T08:41:05.111Z,6.30
2019-03-19T08:42:07.738Z,6.20
2019-03-19T08:43:04.853Z,6.20
2019-03-19T08:44:05.512Z,6.20
2019-03-19T08:45:04.702Z,6.20
2019-03-19T08:46:07.343Z,6.20
2019-03-19T08:47:05.273Z,6.10
2019-03-19T08:48:10.411Z,6.10
2019-03-19T08:49:08.065Z,6.10
2019-03-19T08:50:10.081Z,6.10
2019-03-19T08:51:07.762Z,6.10
2019-03-19T08:52:07.282Z,6.10
2019-03-19T08:53:05.350Z,6.10
2019-03-19T08:54:08.197Z,6.00
2019-03-19T08:55:05.273Z,6.10
2019-03-19T08:56:05.547Z,6.00
2019-03-19T08:57:08.355Z,6.00
2019-03-19T08:58:05.411Z,6.00
2019-03-19T08:59:06.181Z,5.90
2019-03-19T09:00:07.968Z,5.90
2019-03-19T09:01:04.938Z,5.80
2019-03-19T09:02:05.013Z,5.80
2019-03-19T09:03:05.222Z,5.80
2019-03-19T09:04:05.357Z,5.80
2019-03-19T09:05:08.057Z,5.80
2019-03-19T09:06:07.667Z,5.80
2019-03-19T09:07:05.681Z,5.80
2019-03-19T09:08:04.826Z,5.80
2019-03-19T09:09:04.964Z,5.90
2019-03-19T09:10:10.199Z,5.90
2019-03-19T09:11:05.218Z,5.90
2019-03-19T09:12:05.428Z,6.00
2019-03-19T09:13:05.671Z,6.10
2019-03-19T09:14:04.938Z,6.10
2019-03-19T09:15:05.106Z,6.10
2019-03-19T09:16:05.300Z,6.10
2019-03-19T09:17:08.005Z,6.10
2019-03-19T09:18:10.148Z,6.00
2019-03-19T09:19:05.308Z,6.00
2019-03-19T09:20:05.542Z,6.00
2019-03-19T09:21:05.674Z,6.00
2019-03-19T09:22:04.857Z,6.00
2019-03-19T09:23:05.139Z,6.00
2019-03-19T09:24:05.357Z,6.00
2019-03-19T09:25:08.182Z,6.00
2019-03-19T09:26:05.255Z,6.00
2019-03-19T09:27:05.365Z,6.10
2019-03-19T09:28:10.707Z,6.20
2019-03-19T09:29:16.271Z,6.20
2019-03-19T09:30:07.710Z,6.30
2019-03-19T09:31:04.766Z,6.30
2019-03-19T09:32:04.928Z,6.30
2019-03-19T09:33:07.690Z,6.40
2019-03-19T09:34:04.743Z,6.40
2019-03-19T09:35:04.999Z,6.50
2019-03-19T09:36:05.107Z,6.40
2019-03-19T09:37:05.269Z,6.40
2019-03-19T09:38:05.407Z,6.40
2019-03-19T09:39:05.705Z,6.30
2019-03-19T09:40:07.487Z,6.30
2019-03-19T09:41:07.979Z,6.30
2019-03-19T09:42:04.940Z,6.30
2019-03-19T09:43:05.212Z,6.20
2019-03-19T09:44:08.114Z,6.20
2019-03-19T09:45:05.134Z,6.20
2019-03-19T09:46:05.369Z,6.10
2019-03-19T09:47:05.566Z,6.10
2019-03-19T09:48:04.697Z,6.10
2019-03-19T09:49:07.347Z,6.00
2019-03-19T09:50:07.977Z,6.00
2019-03-19T09:51:04.985Z,6.00
2019-03-19T09:52:05.359Z,6.00
2019-03-19T09:53:08.001Z,6.00
2019-03-19T09:54:05.640Z,6.10
2019-03-19T09:55:07.505Z,6.20
2019-03-19T09:56:10.666Z,6.20
2019-03-19T09:57:04.742Z,6.20
2019-03-19T09:58:04.904Z,6.40
2019-03-19T09:59:05.144Z,6.50
2019-03-19T10:00:07.883Z,6.60
2019-03-19T10:01:07.471Z,6.60
2019-03-19T10:02:08.006Z,6.70
2019-03-19T10:03:04.935Z,6.70
2019-03-19T10:04:05.062Z,6.70
2019-03-19T10:05:05.245Z,6.80
2019-03-19T10:06:13.810Z,6.80
2019-03-19T10:07:06.113Z,6.80
2019-03-19T10:08:04.675Z,6.80
2019-03-19T10:09:07.360Z,6.80
2019-03-19T10:10:08.088Z,6.80
2019-03-19T10:11:05.201Z,6.80
2019-03-19T10:12:05.408Z,6.80
2019-03-19T10:13:05.288Z,6.80
2019-03-19T10:14:10.625Z,6.70
2019-03-19T10:15:05.629Z,6.70
2019-03-19T10:16:07.579Z,6.70
2019-03-19T10:17:07.501Z,6.70
2019-03-19T10:18:10.746Z,6.70
2019-03-19T10:19:04.731Z,6.70
2019-03-19T10:20:07.625Z,6.70
2019-03-19T10:21:08.158Z,6.70
2019-03-19T10:22:07.713Z,6.80
2019-03-19T10:23:04.688Z,6.80
2019-03-19T10:24:10.098Z,6.80
2019-03-19T10:25:05.128Z,6.80
2019-03-19T10:26:05.245Z,6.80
2019-03-19T10:27:05.432Z,6.90
2019-03-19T10:28:10.629Z,6.90
2019-03-19T10:29:08.246Z,6.90
2019-03-19T10:30:07.861Z,6.90
2019-03-19T10:31:04.904Z,6.90
2019-03-19T10:32:05.131Z,6.90
2019-03-19T10:33:05.357Z,6.90
2019-03-19T10:34:05.501Z,6.90
2019-03-19T10:35:10.718Z,6.90
2019-03-19T10:36:04.682Z,6.90
2019-03-19T10:37:04.882Z,6.90
2019-03-19T10:38:05.087Z,6.90
2019-03-19T10:39:05.208Z,6.90
2019-03-19T10:40:05.368Z,6.90
2019-03-19T10:41:05.510Z,6.90
2019-03-19T10:42:10.665Z,6.90
2019-03-19T10:43:05.627Z,6.90
2019-03-19T10:44:05.186Z,6.90
2019-03-19T10:45:05.383Z,6.90
2019-03-19T10:46:05.540Z,6.90
2019-03-19T10:47:09.830Z,6.90
2019-03-19T10:48:07.377Z,6.90
2019-03-19T10:49:08.057Z,6.90
2019-03-19T10:50:05.081Z,6.90
2019-03-19T10:51:05.171Z,6.90
2019-03-19T10:52:07.876Z,6.80
2019-03-19T10:53:07.437Z,6.90
2019-03-19T10:54:05.475Z,6.80
2019-03-19T10:55:08.273Z,6.80
2019-03-19T10:56:05.230Z,6.90
2019-03-19T10:57:05.351Z,6.90
2019-03-19T10:58:10.820Z,6.80
2019-03-19T10:59:05.533Z,6.80
2019-03-19T11:00:04.859Z,6.90
2019-03-19T11:01:07.638Z,7.00
2019-03-19T11:02:08.207Z,7.20
2019-03-19T11:03:07.686Z,7.30
2019-03-19T11:04:08.285Z,7.40
2019-03-19T11:05:15.451Z,7.50
2019-03-19T11:06:05.528Z,7.50
2019-03-19T11:07:08.174Z,7.80
2019-03-19T11:08:05.220Z,7.80
2019-03-19T11:09:05.365Z,7.90
2019-03-19T11:10:05.478Z,8.00
2019-03-19T11:11:08.125Z,8.10
2019-03-19T11:12:05.135Z,8.10
2019-03-19T11:13:05.671Z,8.10
2019-03-19T11:14:04.864Z,8.20
2019-03-19T11:15:07.592Z,8.30
2019-03-19T11:16:05.617Z,8.30
2019-03-19T11:17:04.914Z,8.40
2019-03-19T11:18:05.115Z,8.40
2019-03-19T11:19:07.871Z,8.50
2019-03-19T11:20:04.915Z,8.50
2019-03-19T11:21:05.164Z,8.60
2019-03-19T11:22:10.521Z,8.60
2019-03-19T11:23:05.573Z,8.60
2019-03-19T11:24:04.842Z,8.70
2019-03-19T11:25:05.045Z,8.60
2019-03-19T11:26:07.765Z,8.60
2019-03-19T11:27:07.484Z,8.50
2019-03-19T11:28:05.499Z,8.50
2019-03-19T11:29:08.116Z,8.40
2019-03-19T11:30:06.557Z,8.40
2019-03-19T11:31:04.995Z,8.40
2019-03-19T11:32:12.878Z,8.30
2019-03-19T11:33:04.943Z,8.30
2019-03-19T11:34:05.122Z,8.30
2019-03-19T11:35:07.852Z,8.20
2019-03-19T11:36:04.839Z,8.10
2019-03-19T11:37:04.919Z,8.10
2019-03-19T11:38:05.139Z,8.10
2019-03-19T11:39:10.537Z,8.00
2019-03-19T11:40:08.091Z,7.90
2019-03-19T11:41:07.115Z,7.90
2019-03-19T11:42:05.745Z,7.90
2019-03-19T11:43:07.495Z,7.80
2019-03-19T11:44:05.558Z,7.80
2019-03-19T11:45:04.713Z,7.80
2019-03-19T11:46:04.912Z,7.70
2019-03-19T11:47:07.761Z,7.60
2019-03-19T11:48:04.813Z,7.50
2019-03-19T11:49:07.495Z,7.50
2019-03-19T11:50:05.519Z,7.40
2019-03-19T11:51:05.701Z,7.50
2019-03-19T11:52:04.992Z,7.40
2019-03-19T11:53:05.358Z,7.40
2019-03-19T11:54:05.813Z,7.40
2019-03-19T11:55:04.981Z,7.40
2019-03-19T11:56:07.675Z,7.40
2019-03-19T11:57:04.656Z,7.30
2019-03-19T11:58:04.866Z,7.40
2019-03-19T11:59:05.070Z,7.40
2019-03-19T12:00:11.021Z,7.50
2019-03-19T12:01:07.468Z,7.70
2019-03-19T12:02:05.638Z,7.70
2019-03-19T12:03:12.607Z,7.80
2019-03-19T12:04:10.374Z,7.90
2019-03-19T12:05:10.488Z,8.00
2019-03-19T12:06:08.176Z,8.00
2019-03-19T12:07:10.305Z,8.00
2019-03-19T12:08:05.281Z,8.00
2019-03-19T12:09:05.411Z,8.10
2019-03-19T12:10:08.262Z,8.00
2019-03-19T12:11:05.335Z,8.00
2019-03-19T12:12:05.565Z,8.00
2019-03-19T12:13:04.703Z,8.00
2019-03-19T12:14:04.978Z,8.00
2019-03-19T12:15:10.237Z,7.90
2019-03-19T12:16:05.237Z,8.00
2019-03-19T12:17:05.510Z,7.90
2019-03-19T12:18:10.837Z,7.90
2019-03-19T12:19:07.605Z,7.90
2019-03-19T12:20:08.162Z,7.90
2019-03-19T12:21:07.711Z,7.90
2019-03-19T12:22:04.682Z,7.90
2019-03-19T12:23:07.435Z,7.80
2019-03-19T12:24:05.434Z,7.80
2019-03-19T12:25:05.618Z,7.80
2019-03-19T12:26:04.961Z,7.70
2019-03-19T12:27:07.815Z,7.70
2019-03-19T12:28:04.867Z,7.70
2019-03-19T12:29:05.111Z,7.60
2019-03-19T12:30:10.397Z,7.50
2019-03-19T12:31:05.603Z,7.50
2019-03-19T12:32:05.052Z,7.50
2019-03-19T12:33:05.283Z,7.50
2019-03-19T12:34:05.463Z,7.40
2019-03-19T12:35:05.674Z,7.40
2019-03-19T12:36:04.860Z,7.40
2019-03-19T12:37:05.050Z,7.40
2019-03-19T12:38:05.413Z,7.40
2019-03-19T12:39:09.635Z,7.40
2019-03-19T12:40:07.331Z,7.40
2019-03-19T12:41:05.469Z,7.30
2019-03-19T12:42:08.259Z,7.40
2019-03-19T12:43:05.316Z,7.40
2019-03-19T12:44:05.063Z,7.40
2019-03-19T12:45:07.858Z,7.40
2019-03-19T12:46:05.005Z,7.40
2019-03-19T12:47:07.848Z,7.30
2019-03-19T12:48:09.864Z,7.30
2019-03-19T12:49:07.461Z,7.30
2019-03-19T12:50:08.002Z,7.30
2019-03-19T12:51:07.616Z,7.30
2019-03-19T12:52:05.754Z,7.30
2019-03-19T12:53:05.205Z,7.30
2019-03-19T12:54:07.272Z,7.30
2019-03-19T12:55:07.804Z,7.30
2019-03-19T12:56:09.842Z,7.20
2019-03-19T12:57:04.806Z,7.30
2019-03-19T12:58:05.075Z,7.30
2019-03-19T12:59:07.801Z,7.30
2019-03-19T13:00:04.818Z,7.40
2019-03-19T13:01:07.590Z,7.50
2019-03-19T13:02:09.902Z,7.50
2019-03-19T13:03:04.932Z,7.60
2019-03-19T13:04:05.331Z,7.70
2019-03-19T13:05:07.991Z,7.90
2019-03-19T13:06:05.212Z,7.90
2019-03-19T13:07:08.182Z,8.00
2019-03-19T13:08:10.463Z,8.20
2019-03-19T13:09:08.019Z,8.20
2019-03-19T13:10:07.579Z,8.20
2019-03-19T13:11:08.093Z,8.30
2019-03-19T13:12:07.696Z,8.30
2019-03-19T13:13:07.344Z,8.30
2019-03-19T13:14:07.808Z,8.20
2019-03-19T13:15:04.855Z,8.20
2019-03-19T13:16:05.111Z,8.20
2019-03-19T13:17:05.414Z,8.20
2019-03-19T13:18:05.702Z,8.10